createdAt,value
2018-01-12T00:00:24.022Z,101875.79
2018-01-12T00:02:52.319Z,101883.97
2018-01-12T00:05:20.982Z,101882.20
2018-01-12T00:07:49.383Z,101883.44
2018-01-12T00:10:20.363Z,101888.93
2018-01-12T00:12:49.302Z,101892.42
2018-01-12T00:15:18.178Z,101895.58
2018-01-12T00:17:47.634Z,101893.86
2018-01-12T00:20:17.361Z,101897.70
2018-01-12T00:22:46.667Z,101899.57
2018-01-12T00:25:16.336Z,101907.50
2018-01-12T00:27:45.204Z,101906.32
2018-01-12T00:30:13.718Z,101903.02
2018-01-12T00:32:42.710Z,101910.99
2018-01-12T00:35:11.076Z,101908.70
2018-01-12T00:37:39.372Z,101915.39
2018-01-12T00:40:07.702Z,101920.50
2018-01-12T00:42:36.076Z,101917.17
2018-01-12T00:45:04.455Z,101923.61
2018-01-12T00:47:32.915Z,101935.77
2018-01-12T00:50:01.203Z,101932.34
2018-01-12T00:52:29.717Z,101934.56
2018-01-12T00:55:04.016Z,101936.38
2018-01-12T00:57:34.663Z,101929.71
2018-01-12T01:00:03.210Z,101937.97
2018-01-12T01:02:34.462Z,101936.27
2018-01-12T01:05:03.415Z,101935.33
2018-01-12T01:07:31.972Z,101940.21
2018-01-12T01:10:01.230Z,101943.70
2018-01-12T01:12:29.582Z,101946.11
2018-01-12T01:14:57.886Z,101943.88
2018-01-12T01:17:26.763Z,101949.27
2018-01-12T01:19:55.240Z,101959.84
2018-01-12T01:22:24.043Z,101951.83
2018-01-12T01:31:39.821Z,101971.06
2018-01-12T01:34:08.122Z,101963.55
2018-01-12T01:36:36.447Z,101974.34
2018-01-12T01:39:05.421Z,101972.81
2018-01-12T01:41:33.782Z,101973.91
2018-01-12T01:44:02.128Z,101977.94
2018-01-12T01:46:30.479Z,101979.63
2018-01-12T01:48:58.760Z,101981.09
2018-01-12T01:51:27.147Z,101981.81
2018-01-12T01:53:55.571Z,101985.16
2018-01-12T01:56:24.041Z,101987.95
2018-01-12T01:58:52.427Z,101986.40
2018-01-12T02:01:20.939Z,101992.75
2018-01-12T02:03:49.392Z,101991.62
2018-01-12T02:06:17.736Z,101992.56
2018-01-12T02:08:46.020Z,101992.43
2018-01-12T02:11:14.329Z,101997.88
2018-01-12T02:13:42.726Z,101992.02
2018-01-12T02:16:11.067Z,101994.42
2018-01-12T02:18:39.365Z,101996.59
2018-01-12T02:21:07.678Z,102000.97
2018-01-12T02:23:36.018Z,102004.70
2018-01-12T02:26:04.355Z,102007.44
2018-01-12T02:28:32.679Z,102005.78
2018-01-12T02:31:01.032Z,102006.75
2018-01-12T02:33:29.547Z,102007.34
2018-01-12T02:35:57.862Z,102011.31
2018-01-12T02:38:26.172Z,102009.96
2018-01-12T02:40:54.604Z,102005.06
2018-01-12T02:43:23.083Z,102015.45
2018-01-12T02:45:51.692Z,102024.74
2018-01-12T02:48:21.324Z,102029.09
2018-01-12T02:50:49.644Z,102031.27
2018-01-12T02:53:17.943Z,102030.98
2018-01-12T02:55:46.350Z,102033.03
2018-01-12T02:58:14.686Z,102035.81
2018-01-12T03:00:43.195Z,102043.01
2018-01-12T03:03:11.518Z,102045.89
2018-01-12T03:05:39.818Z,102046.39
2018-01-12T03:08:08.256Z,102051.84
2018-01-12T03:10:36.657Z,102051.84
2018-01-12T03:13:05.012Z,102053.43
2018-01-12T03:15:33.338Z,102053.70
2018-01-12T03:18:01.635Z,102059.34
2018-01-12T03:20:30.080Z,102062.91
2018-01-12T03:22:58.530Z,102063.53
2018-01-12T03:25:27.148Z,102067.37
2018-01-12T03:27:55.434Z,102065.80
2018-01-12T03:30:23.807Z,102066.76
2018-01-12T03:32:52.116Z,102065.91
2018-01-12T03:35:20.478Z,102072.68
2018-01-12T03:37:48.800Z,102065.69
2018-01-12T03:40:17.102Z,102069.14
2018-01-12T03:42:45.457Z,102077.70
2018-01-12T03:45:13.791Z,102066.23
2018-01-12T03:47:42.099Z,102074.24
2018-01-12T03:50:10.443Z,102074.66
2018-01-12T03:52:38.736Z,102085.93
2018-01-12T03:55:07.171Z,102086.24
2018-01-12T03:57:35.618Z,102085.09
2018-01-12T04:00:03.925Z,102093.43
2018-01-12T04:02:32.269Z,102089.56
2018-01-12T04:05:00.650Z,102084.46
2018-01-12T04:07:29.015Z,102085.81
2018-01-12T04:09:57.315Z,102086.42
2018-01-12T04:12:25.640Z,102088.51
2018-01-12T04:14:53.936Z,102089.14
2018-01-12T04:17:22.270Z,102088.81
2018-01-12T04:19:50.541Z,102084.34
2018-01-12T04:22:18.871Z,102084.56
2018-01-12T04:24:47.129Z,102084.47
2018-01-12T04:27:15.484Z,102081.55
2018-01-12T04:29:43.789Z,102084.36
2018-01-12T04:32:12.142Z,102093.41
2018-01-12T04:34:40.412Z,102106.73
2018-01-12T04:37:08.747Z,102112.58
2018-01-12T04:39:37.103Z,102110.80
2018-01-12T04:42:05.470Z,102106.84
2018-01-12T04:44:33.770Z,102102.53
2018-01-12T04:47:02.115Z,102105.02
2018-01-12T04:49:30.401Z,102104.44
2018-01-12T04:51:58.788Z,102109.55
2018-01-12T04:54:27.111Z,102113.28
2018-01-12T04:56:56.423Z,102116.30
2018-01-12T04:59:24.736Z,102111.92
2018-01-12T05:04:48.890Z,102125.30
2018-01-12T05:07:17.515Z,102122.80
2018-01-12T05:09:46.127Z,102124.18
2018-01-12T05:12:14.707Z,102123.89
2018-01-12T05:14:43.233Z,102120.73
2018-01-12T05:17:11.980Z,102133.59
2018-01-12T05:19:40.632Z,102130.81
2018-01-12T05:22:09.344Z,102127.11
2018-01-12T05:24:37.860Z,102132.02
2018-01-12T05:27:07.528Z,102134.42
2018-01-12T05:29:36.342Z,102137.23
2018-01-12T05:32:04.876Z,102135.36
2018-01-12T05:34:33.376Z,102138.70
2018-01-12T05:37:02.145Z,102141.83
2018-01-12T05:39:30.649Z,102146.36
2018-01-12T05:41:59.414Z,102147.48
2018-01-12T05:44:27.948Z,102144.29
2018-01-12T05:46:56.465Z,102153.64
2018-01-12T05:49:24.950Z,102158.89
2018-01-12T05:51:53.774Z,102156.16
2018-01-12T05:54:22.325Z,102153.42
2018-01-12T05:56:51.137Z,102158.02
2018-01-12T05:59:19.661Z,102162.66
2018-01-12T06:01:59.499Z,102160.22
2018-01-12T06:06:41.330Z,102169.98
2018-01-12T06:09:10.218Z,102169.14
2018-01-12T06:11:38.925Z,102176.33
2018-01-12T06:14:07.460Z,102177.94
2018-01-12T06:16:35.997Z,102176.48
2018-01-12T06:19:04.628Z,102182.87
2018-01-12T06:21:33.288Z,102182.16
2018-01-12T06:24:01.843Z,102183.36
2018-01-12T06:26:30.357Z,102191.92
2018-01-12T06:28:58.923Z,102193.09
2018-01-12T06:31:27.565Z,102193.23
2018-01-12T06:33:56.087Z,102192.30
2018-01-12T06:36:24.757Z,102207.05
2018-01-12T06:38:53.843Z,102207.82
2018-01-12T06:41:22.514Z,102203.05
2018-01-12T06:43:52.619Z,102211.81
2018-01-12T06:46:21.210Z,102225.94
2018-01-12T06:48:49.835Z,102226.77
2018-01-12T06:51:18.547Z,102222.13
2018-01-12T06:53:47.345Z,102234.53
2018-01-12T06:56:16.138Z,102227.89
2018-01-12T06:58:44.788Z,102235.22
2018-01-12T07:01:13.309Z,102236.05
2018-01-12T07:03:41.908Z,102240.86
2018-01-12T07:06:11.397Z,102243.95
2018-01-12T07:08:39.984Z,102241.38
2018-01-12T07:11:08.816Z,102252.88
2018-01-12T07:13:37.685Z,102258.04
2018-01-12T07:16:06.269Z,102255.84
2018-01-12T07:18:34.870Z,102257.94
2018-01-12T07:21:14.768Z,102267.89
2018-01-12T07:23:45.509Z,102263.33
2018-01-12T07:26:14.053Z,102273.78
2018-01-12T07:28:42.608Z,102278.44
2018-01-12T07:31:11.153Z,102280.50
2018-01-12T07:33:39.659Z,102283.77
2018-01-12T07:36:08.209Z,102278.16
2018-01-12T07:38:36.924Z,102285.76
2018-01-12T07:41:05.491Z,102291.29
2018-01-12T07:43:33.997Z,102290.63
2018-01-12T07:46:04.343Z,102295.11
2018-01-12T07:48:32.883Z,102298.50
2018-01-12T07:51:01.589Z,102296.92
2018-01-12T07:53:30.495Z,102300.52
2018-01-12T07:55:59.193Z,102303.43
2018-01-12T07:58:27.841Z,102302.30
2018-01-12T08:01:00.851Z,102303.70
2018-01-12T08:03:29.508Z,102306.34
2018-01-12T08:05:58.039Z,102306.61
2018-01-12T08:08:26.688Z,102307.02
2018-01-12T08:10:55.443Z,102309.05
2018-01-12T08:13:23.983Z,102313.96
2018-01-12T08:15:52.545Z,102308.92
2018-01-12T08:18:21.059Z,102320.94
2018-01-12T08:20:49.950Z,102319.44
2018-01-12T08:23:21.718Z,102325.74
2018-01-12T08:25:50.712Z,102327.04
2018-01-12T08:28:19.542Z,102325.64
2018-01-12T08:30:48.367Z,102325.96
2018-01-12T08:33:16.927Z,102324.81
2018-01-12T08:35:45.778Z,102331.00
2018-01-12T08:38:14.977Z,102339.70
2018-01-12T08:40:43.856Z,102334.52
2018-01-12T08:43:12.426Z,102335.71
2018-01-12T08:45:41.017Z,102336.52
2018-01-12T08:48:09.587Z,102353.66
2018-01-12T08:50:38.202Z,102356.52
2018-01-12T08:53:12.674Z,102359.09
2018-01-12T08:55:42.472Z,102354.20
2018-01-12T08:58:13.384Z,102354.41
2018-01-12T09:00:42.140Z,102355.39
2018-01-12T09:03:11.374Z,102360.09
2018-01-12T09:05:39.939Z,102365.45
2018-01-12T09:08:08.777Z,102370.81
2018-01-12T09:10:37.456Z,102377.36
2018-01-12T09:13:15.080Z,102377.02
2018-01-12T09:15:43.744Z,102370.39
2018-01-12T09:18:21.297Z,102379.57
2018-01-12T09:20:50.428Z,102384.87
2018-01-12T09:23:27.945Z,102384.96
2018-01-12T09:25:56.596Z,102387.00
2018-01-12T09:28:25.307Z,102391.12
2018-01-12T09:30:53.981Z,102395.92
2018-01-12T09:33:22.543Z,102394.37
2018-01-12T09:35:51.191Z,102394.47
2018-01-12T09:38:28.015Z,102398.06
2018-01-12T09:40:56.716Z,102404.94
2018-01-12T09:43:25.336Z,102400.49
2018-01-12T09:45:54.335Z,102403.29
2018-01-12T09:48:27.747Z,102402.74
2018-01-12T09:50:56.579Z,102402.18
2018-01-12T09:53:25.137Z,102410.56
2018-01-12T09:55:53.761Z,102403.37
2018-01-12T09:58:22.383Z,102403.42
2018-01-12T10:00:59.171Z,102412.37
2018-01-12T10:03:27.928Z,102400.38
2018-01-12T10:05:57.102Z,102413.23
2018-01-12T10:08:26.403Z,102403.44
2018-01-12T10:10:55.000Z,102415.66
2018-01-12T10:13:23.609Z,102413.91
2018-01-12T10:15:52.191Z,102415.83
2018-01-12T10:18:25.550Z,102416.14
2018-01-12T10:20:55.103Z,102408.16
2018-01-12T10:23:23.717Z,102409.23
2018-01-12T10:25:52.429Z,102420.30
2018-01-12T10:28:21.106Z,102419.09
2018-01-12T10:30:57.451Z,102422.63
2018-01-12T10:33:31.946Z,102427.02
2018-01-12T10:36:07.335Z,102419.98
2018-01-12T10:38:36.163Z,102422.60
2018-01-12T10:41:13.571Z,102421.66
2018-01-12T10:43:43.544Z,102425.86
2018-01-12T10:46:20.995Z,102421.75
2018-01-12T10:48:57.066Z,102426.23
2018-01-12T10:51:34.653Z,102426.03
2018-01-12T10:54:03.651Z,102435.43
2018-01-12T10:56:32.224Z,102435.70
2018-01-12T10:59:00.780Z,102444.17
2018-01-12T11:01:29.598Z,102439.14
2018-01-12T11:03:58.300Z,102444.56
2018-01-12T11:06:27.227Z,102444.56
2018-01-12T11:08:56.088Z,102453.06
2018-01-12T11:11:24.983Z,102451.63
2018-01-12T11:13:53.836Z,102449.57
2018-01-12T11:16:22.552Z,102454.79
2018-01-12T11:18:51.208Z,102456.41
2018-01-12T11:21:19.874Z,102454.35
2018-01-12T11:23:48.804Z,102452.51
2018-01-12T11:26:18.012Z,102455.04
2018-01-12T11:28:46.561Z,102455.55
2018-01-12T11:31:15.084Z,102451.09
2018-01-12T11:33:45.389Z,102448.02
2018-01-12T11:36:13.999Z,102444.52
2018-01-12T11:38:42.600Z,102446.80
2018-01-12T11:41:11.148Z,102448.52
2018-01-12T11:43:39.838Z,102452.46
2018-01-12T11:46:08.524Z,102450.20
2018-01-12T11:48:37.068Z,102447.97
2018-01-12T11:51:05.780Z,102447.74
2018-01-12T11:53:34.635Z,102447.88
2018-01-12T11:56:03.173Z,102447.59
2018-01-12T11:58:31.816Z,102444.03
2018-01-12T12:01:00.548Z,102438.12
2018-01-12T12:03:29.179Z,102450.55
2018-01-12T12:05:58.752Z,102448.63
2018-01-12T12:08:27.392Z,102455.36
2018-01-12T12:10:56.283Z,102452.53
2018-01-12T12:13:25.388Z,102455.00
2018-01-12T12:15:54.504Z,102451.36
2018-01-12T12:18:23.477Z,102445.48
2018-01-12T12:20:52.177Z,102456.25
2018-01-12T12:23:20.850Z,102454.66
2018-01-12T12:25:49.936Z,102454.69
2018-01-12T12:28:19.485Z,102455.23
2018-01-12T12:30:48.340Z,102453.22
2018-01-12T12:33:17.657Z,102444.98
2018-01-12T12:35:47.394Z,102450.75
2018-01-12T12:38:17.007Z,102448.04
2018-01-12T12:40:46.482Z,102452.31
2018-01-12T12:43:15.257Z,102456.44
2018-01-12T12:45:43.861Z,102455.31
2018-01-12T12:48:13.128Z,102451.98
2018-01-12T12:50:42.951Z,102451.16
2018-01-12T12:53:11.938Z,102454.34
2018-01-12T12:55:42.725Z,102446.03
2018-01-12T12:58:11.607Z,102450.95
2018-01-12T13:00:41.560Z,102452.38
2018-01-12T13:03:11.540Z,102451.80
2018-01-12T13:05:40.872Z,102448.44
2018-01-12T13:08:09.461Z,102456.30
2018-01-12T13:10:38.463Z,102454.11
2018-01-12T13:13:07.038Z,102454.13
2018-01-12T13:15:36.186Z,102457.99
2018-01-12T13:18:04.799Z,102455.65
2018-01-12T13:20:33.538Z,102454.41
2018-01-12T13:23:02.428Z,102455.75
2018-01-12T13:25:31.133Z,102447.65
2018-01-12T13:28:00.199Z,102453.13
2018-01-12T13:30:29.134Z,102459.80
2018-01-12T13:32:57.742Z,102464.66
2018-01-12T13:35:26.676Z,102463.69
2018-01-12T13:37:55.538Z,102462.50
2018-01-12T13:40:24.449Z,102467.25
2018-01-12T13:42:53.308Z,102467.13
2018-01-12T13:45:21.892Z,102472.29
2018-01-12T13:47:50.455Z,102475.64
2018-01-12T13:50:19.343Z,102479.17
2018-01-12T13:52:48.243Z,102480.20
2018-01-12T13:55:16.979Z,102487.02
2018-01-12T13:57:45.814Z,102493.69
2018-01-12T14:00:14.573Z,102496.39
2018-01-12T14:02:43.192Z,102496.38
2018-01-12T14:05:12.934Z,102497.08
2018-01-12T14:07:41.459Z,102495.52
2018-01-12T14:10:10.522Z,102490.84
2018-01-12T14:12:39.239Z,102501.98
2018-01-12T14:15:09.806Z,102493.53
2018-01-12T14:17:38.643Z,102495.52
2018-01-12T14:20:07.524Z,102492.35
2018-01-12T14:22:36.103Z,102488.88
2018-01-12T14:25:04.898Z,102492.80
2018-01-12T14:27:33.938Z,102495.76
2018-01-12T14:30:03.928Z,102493.75
2018-01-12T14:32:32.822Z,102499.05
2018-01-12T14:35:01.487Z,102503.54
2018-01-12T14:37:30.166Z,102512.47
2018-01-12T14:39:58.882Z,102505.98
2018-01-12T14:42:28.281Z,102508.76
2018-01-12T14:44:56.808Z,102516.73
2018-01-12T14:47:25.602Z,102518.63
2018-01-12T14:49:54.253Z,102515.55
2018-01-12T14:52:23.208Z,102515.41
2018-01-12T14:54:53.063Z,102519.94
2018-01-12T14:57:22.201Z,102526.48
2018-01-12T14:59:51.081Z,102526.38
2018-01-12T15:02:20.005Z,102531.23
2018-01-12T15:04:48.860Z,102530.55
2018-01-12T15:07:18.797Z,102532.05
2018-01-12T15:09:47.647Z,102530.94
2018-01-12T15:12:16.269Z,102531.89
2018-01-12T15:14:45.264Z,102531.54
2018-01-12T15:17:14.665Z,102535.86
2018-01-12T15:19:44.257Z,102537.62
2018-01-12T15:22:13.349Z,102536.77
2018-01-12T15:24:42.259Z,102541.45
2018-01-12T15:27:12.150Z,102546.53
2018-01-12T15:29:41.268Z,102542.81
2018-01-12T15:32:10.172Z,102548.53
2018-01-12T15:34:39.222Z,102548.63
2018-01-12T15:37:08.140Z,102545.59
2018-01-12T15:39:37.710Z,102547.91
2018-01-12T15:42:06.518Z,102550.83
2018-01-12T15:44:36.108Z,102554.53
2018-01-12T15:47:05.397Z,102549.72
2018-01-12T15:49:34.752Z,102555.50
2018-01-12T15:52:03.951Z,102559.90
2018-01-12T15:54:32.944Z,102556.87
2018-01-12T15:57:02.217Z,102558.64
2018-01-12T15:59:30.774Z,102558.45
2018-01-12T16:01:59.491Z,102562.95
2018-01-12T16:04:28.741Z,102565.30
2018-01-12T16:06:57.621Z,102561.70
2018-01-12T16:09:27.790Z,102568.05
2018-01-12T16:11:57.117Z,102568.95
2018-01-12T16:14:25.994Z,102574.88
2018-01-12T16:16:55.197Z,102578.84
2018-01-12T16:19:24.204Z,102579.09
2018-01-12T16:21:53.806Z,102575.47
2018-01-12T16:24:23.698Z,102577.23
2018-01-12T16:26:52.814Z,102580.72
2018-01-12T16:29:21.688Z,102579.86
2018-01-12T16:31:50.801Z,102585.09
2018-01-12T16:34:19.433Z,102580.11
2018-01-12T16:37:51.664Z,102584.50
2018-01-12T16:40:20.551Z,102590.26
2018-01-12T16:42:49.407Z,102593.15
2018-01-12T16:45:18.254Z,102587.82
2018-01-12T16:47:47.395Z,102595.19
2018-01-12T16:50:17.524Z,102594.41
2018-01-12T16:52:46.304Z,102594.94
2018-01-12T16:55:15.213Z,102596.13
2018-01-12T16:57:44.086Z,102598.52
2018-01-12T17:00:12.903Z,102598.14
2018-01-12T17:02:41.518Z,102598.52
2018-01-12T17:05:10.757Z,102605.42
2018-01-12T17:07:39.411Z,102607.37
2018-01-12T17:10:08.335Z,102600.25
2018-01-12T17:12:37.669Z,102603.72
2018-01-12T17:15:07.989Z,102610.55
2018-01-12T17:17:36.649Z,102604.75
2018-01-12T17:20:05.765Z,102604.14
2018-01-12T17:22:35.247Z,102603.67
2018-01-12T17:25:03.960Z,102606.61
2018-01-12T17:27:32.605Z,102607.37
2018-01-12T17:30:01.481Z,102608.00
2018-01-12T17:32:30.404Z,102614.35
2018-01-12T17:34:58.848Z,102615.03
2018-01-12T17:37:27.593Z,102611.68
2018-01-12T17:39:56.216Z,102609.22
2018-01-12T17:42:24.973Z,102606.77
2018-01-12T17:44:53.620Z,102607.06
2018-01-12T17:47:22.271Z,102609.77
2018-01-12T17:49:50.841Z,102607.57
2018-01-12T17:52:19.499Z,102609.46
2018-01-12T17:54:48.440Z,102613.32
2018-01-12T17:57:17.265Z,102618.94
2018-01-12T17:59:46.557Z,102610.83
2018-01-12T18:02:15.560Z,102618.94
2018-01-12T18:04:44.295Z,102620.31
2018-01-12T18:07:13.195Z,102618.24
2018-01-12T18:09:42.258Z,102614.30
2018-01-12T18:12:11.928Z,102621.39
2018-01-12T18:14:40.475Z,102620.66
2018-01-12T18:17:09.115Z,102620.68
2018-01-12T18:19:37.669Z,102622.87
2018-01-12T18:22:06.662Z,102622.20
2018-01-12T18:24:35.673Z,102599.39
2018-01-12T18:27:04.208Z,102625.78
2018-01-12T18:29:33.000Z,102627.34
2018-01-12T18:32:01.627Z,102629.67
2018-01-12T18:34:30.187Z,102645.22
2018-01-12T18:36:58.916Z,102640.88
2018-01-12T18:39:27.549Z,102650.22
2018-01-12T18:41:56.123Z,102645.25
2018-01-12T18:44:24.756Z,102648.61
2018-01-12T18:46:53.390Z,102656.26
2018-01-12T18:49:22.204Z,102663.59
2018-01-12T18:51:50.901Z,102659.40
2018-01-12T18:54:19.754Z,102655.38
2018-01-12T18:56:48.297Z,102664.64
2018-01-12T18:59:17.110Z,102662.81
2018-01-12T19:01:46.389Z,102661.09
2018-01-12T19:04:15.150Z,102663.02
2018-01-12T19:06:43.760Z,102666.51
2018-01-12T19:09:12.961Z,102670.55
2018-01-12T19:11:41.625Z,102678.63
2018-01-12T19:14:10.144Z,102676.89
2018-01-12T19:16:39.217Z,102684.62
2018-01-12T19:19:07.981Z,102682.09
2018-01-12T19:21:36.705Z,102683.72
2018-01-12T19:24:06.089Z,102690.09
2018-01-12T19:26:36.068Z,102688.53
2018-01-12T19:29:04.793Z,102692.14
2018-01-12T19:31:33.479Z,102692.28
2018-01-12T19:34:03.607Z,102695.45
2018-01-12T19:36:32.893Z,102703.38
2018-01-12T19:39:02.394Z,102703.42
2018-01-12T19:41:31.186Z,102698.66
2018-01-12T19:43:59.776Z,102708.45
2018-01-12T19:46:28.530Z,102702.30
2018-01-12T19:48:57.187Z,102710.27
2018-01-12T19:51:26.138Z,102701.00
2018-01-12T19:53:55.032Z,102705.20
2018-01-12T19:56:23.623Z,102709.03
2018-01-12T19:58:53.284Z,102706.16
2018-01-12T20:01:22.152Z,102705.14
2018-01-12T20:03:50.954Z,102708.19
2018-01-12T20:06:19.973Z,102711.73
2018-01-12T20:08:48.680Z,102705.61
2018-01-12T20:11:18.063Z,102706.88
2018-01-12T20:13:47.885Z,102707.41
2018-01-12T20:16:17.312Z,102712.80
2018-01-12T20:18:46.725Z,102710.81
2018-01-12T20:21:17.024Z,102705.58
2018-01-12T20:23:47.074Z,102712.89
2018-01-12T20:26:17.044Z,102709.62
2018-01-12T20:28:45.977Z,102710.20
2018-01-12T20:31:14.868Z,102722.80
2018-01-12T20:33:43.345Z,102719.31
2018-01-12T20:36:13.342Z,102712.89
2018-01-12T20:38:42.167Z,102717.52
2018-01-12T20:41:12.096Z,102726.48
2018-01-12T20:43:41.562Z,102727.50
2018-01-12T20:46:12.813Z,102725.50
2018-01-12T20:48:42.643Z,102729.41
2018-01-12T20:51:13.738Z,102733.58
2018-01-12T20:53:44.436Z,102733.86
2018-01-12T20:56:17.761Z,102730.35
2018-01-12T20:58:46.433Z,102724.78
2018-01-12T21:01:15.041Z,102725.49
2018-01-12T21:03:44.860Z,102736.08
2018-01-12T21:06:14.549Z,102737.56
2018-01-12T21:08:43.207Z,102743.19
2018-01-12T21:11:12.507Z,102738.28
2018-01-12T21:13:41.478Z,102743.61
2018-01-12T21:16:10.434Z,102740.13
2018-01-12T21:18:39.120Z,102743.83
2018-01-12T21:21:08.160Z,102738.09
2018-01-12T21:23:36.946Z,102743.61
2018-01-12T21:26:05.672Z,102746.10
2018-01-12T21:28:34.223Z,102748.59
2018-01-12T21:31:03.233Z,102753.81
2018-01-12T21:33:31.947Z,102751.56
2018-01-12T21:36:01.775Z,102755.05
2018-01-12T21:38:31.152Z,102755.03
2018-01-12T21:40:59.707Z,102758.73
2018-01-12T21:43:29.131Z,102752.99
2018-01-12T21:45:58.150Z,102755.89
2018-01-12T21:48:26.852Z,102756.66
2018-01-12T21:50:55.601Z,102752.97
2018-01-12T21:53:25.510Z,102757.44
2018-01-12T21:55:54.208Z,102766.01
2018-01-12T21:58:23.534Z,102763.55
2018-01-12T22:00:52.996Z,102764.41
2018-01-12T22:03:22.564Z,102766.60
2018-01-12T22:05:51.620Z,102768.12
2018-01-12T22:08:20.307Z,102764.50
2018-01-12T22:10:48.909Z,102769.61
2018-01-12T22:13:18.517Z,102770.11
2018-01-12T22:15:47.850Z,102770.48
2018-01-12T22:18:17.061Z,102767.89
2018-01-12T22:20:45.666Z,102767.34
2018-01-12T22:23:14.265Z,102761.63
2018-01-12T22:25:43.162Z,102772.54
2018-01-12T22:28:11.882Z,102770.88
2018-01-12T22:30:40.529Z,102761.63
2018-01-12T22:33:10.016Z,102759.66
2018-01-12T22:35:38.648Z,102758.55
2018-01-12T22:38:07.266Z,102761.73
2018-01-12T22:40:36.202Z,102756.80
2018-01-12T22:43:04.892Z,102755.92
2018-01-12T22:45:33.436Z,102749.49
2018-01-12T22:48:03.604Z,102754.61
2018-01-12T22:50:32.672Z,102753.10
2018-01-12T22:53:01.563Z,102751.66
2018-01-12T22:55:30.247Z,102753.45
2018-01-12T22:57:58.808Z,102756.59
2018-01-12T23:00:27.386Z,102759.00
2018-01-12T23:02:56.505Z,102756.52
2018-01-12T23:05:25.200Z,102759.11
2018-01-12T23:07:53.922Z,102760.06
2018-01-12T23:10:24.363Z,102760.66
2018-01-12T23:12:54.307Z,102759.89
2018-01-12T23:15:24.277Z,102758.13
2018-01-12T23:17:53.492Z,102756.27
2018-01-12T23:20:23.033Z,102751.04
2018-01-12T23:22:51.781Z,102753.53
2018-01-12T23:25:20.391Z,102755.44
2018-01-12T23:27:48.966Z,102758.30
2018-01-12T23:30:18.168Z,102753.69
2018-01-12T23:32:46.708Z,102750.09
2018-01-12T23:35:15.437Z,102749.42
2018-01-12T23:37:44.557Z,102756.28
2018-01-12T23:40:13.111Z,102757.94
2018-01-12T23:42:41.909Z,102751.59
2018-01-12T23:45:10.682Z,102757.67
2018-01-12T23:47:39.283Z,102753.49
2018-01-12T23:50:07.947Z,102749.25
2018-01-12T23:52:36.501Z,102750.45
2018-01-12T23:55:04.928Z,102751.68
2018-01-12T23:57:33.555Z,102744.57
